Aquis Perla — 3FKF3 — position and weather

sailwx.info

Track history (hours):
 
Tides and Currents Weather Stations Pressure Air Temp Water Temp Dewpoint Dewpoint Depression Visibility Wind Speed Wind Dir Waves Ship Positions

Aquis Perla

Last reported at 2018-Jun-16 19:17 UTC. Time now 2018-Jun-18 13:43 UTC.
Position N 32°51' E 035°01'.

Length 113 m; draft 8.3 m.

Type: Cargo ship. MMSI: 352187000.

Date/timePositionNaut miles runAvg speedWind from/ knotsBaromVisibWave heightAir tempDewpointWater temp
2018-Jun-16 19:17N 32°51' E 035°01'1 1.5
2018-Jun-16 18:38N 32°51' E 035°00'0 1.3
2018-Jun-16 18:30N 32°52' E 035°00'1 1.2
2018-Jun-16 17:56N 32°52' E 035°00'0 0.0
2018-Jun-16 17:12N 32°52' E 035°00'0 0.1
2018-Jun-16 16:59N 32°52' E 035°00'0 0.0
2018-Jun-16 16:30N 32°52' E 035°00'0 0.1
2018-Jun-16 15:58N 32°52' E 035°00'  
2018-Jun-12 17:19N 32°52' E 034°60'0 0.0
2018-Jun-12 02:06N 32°52' E 034°60'0 0.0
2018-Jun-12 01:58N 32°52' E 034°60'0 0.1
2018-Jun-12 01:30N 32°52' E 034°60'0 0.0
2018-Jun-12 01:00N 32°52' E 034°60'0 0.0
2018-Jun-11 23:09N 32°52' E 034°60'0 0.0
2018-Jun-11 19:33N 32°52' E 034°60'0 0.0
2018-Jun-11 19:09N 32°52' E 034°60'0 0.0
2018-Jun-11 18:51N 32°52' E 034°60'0 0.0
2018-Jun-11 12:30N 32°52' E 034°60'0 0.0
2018-Jun-11 11:40N 32°52' E 034°60'0 0.0
2018-Jun-11 11:27N 32°52' E 034°60'0 0.0
2018-Jun-10 16:00N 32°52' E 034°60'0 0.0
2018-Jun-10 15:24N 32°52' E 034°60'0 0.0
2018-Jun-10 15:00N 32°52' E 034°60'0 0.0
2018-Jun-10 11:33N 32°52' E 034°60'0 0.0
2018-Jun-10 11:16N 32°52' E 034°60'0 0.0
2018-Jun-10 10:49N 32°52' E 034°60'0 0.0
2018-Jun-10 09:27N 32°52' E 034°60'0 0.0
2018-Jun-10 04:03N 32°52' E 034°60'0 0.0
2018-Jun-10 02:12N 32°52' E 034°60'0 0.0
2018-Jun-09 21:36N 32°52' E 034°60'0 0.1
2018-Jun-09 21:27N 32°52' E 034°60'0 0.0
2018-Jun-09 19:18N 32°52' E 034°60'0 0.0
2018-Jun-09 19:00N 32°52' E 034°60'0 0.0
2018-Jun-09 10:25N 32°52' E 034°60'0 0.0
2018-Jun-09 09:56N 32°52' E 034°60'0 0.0
2018-Jun-09 05:41N 32°52' E 034°60'0 0.0
2018-Jun-09 04:17N 32°52' E 034°60'0 0.0
2018-Jun-09 00:02N 32°52' E 034°60'0 0.0
2018-Jun-08 23:58N 32°52' E 034°60'0 0.0
2018-Jun-08 22:03N 32°52' E 034°60'0 0.0
2018-Jun-08 20:44N 32°52' E 034°60'0 0.0
2018-Jun-08 20:26N 32°52' E 034°60'0 0.0
2018-Jun-08 19:04N 32°52' E 034°60'0 0.0
2018-Jun-08 17:00N 32°52' E 034°60'0 0.0
2018-Jun-08 16:22N 32°52' E 034°60'0 0.1
2018-Jun-08 15:56N 32°52' E 035°00'0 0.0
2018-Jun-08 14:01N 32°52' E 034°60'0 0.0
2018-Jun-08 12:25N 32°52' E 034°60'0 1.1
2018-Jun-08 12:00N 32°52' E 034°59'4 8.8
2018-Jun-08 11:29N 32°53' E 034°54'1222.7
2018-Jun-08 10:59N 32°56' E 034°41'0 0.0
2018-Jun-08 10:30N 32°56' E 034°41'510.9
2018-Jun-08 10:01N 32°57' E 034°35'5 9.2
2018-Jun-08 09:29N 33°00' E 034°30'1911.4
2018-Jun-08 07:46N 33°19' E 034°35'  
Track history (hours):
 
Tides and Currents Weather Stations Pressure Air Temp Water Temp Dewpoint Dewpoint Depression Visibility Wind Speed Wind Dir Waves Ship Positions

Aquis Perla

Last reported at 2018-Jun-16 19:17 UTC. Time now 2018-Jun-18 13:43 UTC.
Position N 32°51' E 035°01'.

Length 113 m; draft 8.3 m.

Type: Cargo ship. MMSI: 352187000.

Date/timePositionNaut miles runAvg speedWind from/ knotsBaromVisibWave heightAir tempDewpointWater temp
2018-Jun-16 19:17N 32°51' E 035°01'1 1.5
2018-Jun-16 18:38N 32°51' E 035°00'0 1.3
2018-Jun-16 18:30N 32°52' E 035°00'1 1.2
2018-Jun-16 17:56N 32°52' E 035°00'0 0.0
2018-Jun-16 17:12N 32°52' E 035°00'0 0.1
2018-Jun-16 16:59N 32°52' E 035°00'0 0.0
2018-Jun-16 16:30N 32°52' E 035°00'0 0.1
2018-Jun-16 15:58N 32°52' E 035°00'  
2018-Jun-12 17:19N 32°52' E 034°60'0 0.0
2018-Jun-12 02:06N 32°52' E 034°60'0 0.0
2018-Jun-12 01:58N 32°52' E 034°60'0 0.1
2018-Jun-12 01:30N 32°52' E 034°60'0 0.0
2018-Jun-12 01:00N 32°52' E 034°60'0 0.0
2018-Jun-11 23:09N 32°52' E 034°60'0 0.0
2018-Jun-11 19:33N 32°52' E 034°60'0 0.0
2018-Jun-11 19:09N 32°52' E 034°60'0 0.0
2018-Jun-11 18:51N 32°52' E 034°60'0 0.0
2018-Jun-11 12:30N 32°52' E 034°60'0 0.0
2018-Jun-11 11:40N 32°52' E 034°60'0 0.0
2018-Jun-11 11:27N 32°52' E 034°60'0 0.0
2018-Jun-10 16:00N 32°52' E 034°60'0 0.0
2018-Jun-10 15:24N 32°52' E 034°60'0 0.0
2018-Jun-10 15:00N 32°52' E 034°60'0 0.0
2018-Jun-10 11:33N 32°52' E 034°60'0 0.0
2018-Jun-10 11:16N 32°52' E 034°60'0 0.0
2018-Jun-10 10:49N 32°52' E 034°60'0 0.0
2018-Jun-10 09:27N 32°52' E 034°60'0 0.0
2018-Jun-10 04:03N 32°52' E 034°60'0 0.0
2018-Jun-10 02:12N 32°52' E 034°60'0 0.0
2018-Jun-09 21:36N 32°52' E 034°60'0 0.1
2018-Jun-09 21:27N 32°52' E 034°60'0 0.0
2018-Jun-09 19:18N 32°52' E 034°60'0 0.0
2018-Jun-09 19:00N 32°52' E 034°60'0 0.0
2018-Jun-09 10:25N 32°52' E 034°60'0 0.0
2018-Jun-09 09:56N 32°52' E 034°60'0 0.0
2018-Jun-09 05:41N 32°52' E 034°60'0 0.0
2018-Jun-09 04:17N 32°52' E 034°60'0 0.0
2018-Jun-09 00:02N 32°52' E 034°60'0 0.0
2018-Jun-08 23:58N 32°52' E 034°60'0 0.0
2018-Jun-08 22:03N 32°52' E 034°60'0 0.0
2018-Jun-08 20:44N 32°52' E 034°60'0 0.0
2018-Jun-08 20:26N 32°52' E 034°60'0 0.0
2018-Jun-08 19:04N 32°52' E 034°60'0 0.0
2018-Jun-08 17:00N 32°52' E 034°60'0 0.0
2018-Jun-08 16:22N 32°52' E 034°60'0 0.1
2018-Jun-08 15:56N 32°52' E 035°00'0 0.0
2018-Jun-08 14:01N 32°52' E 034°60'0 0.0
2018-Jun-08 12:25N 32°52' E 034°60'0 1.1
2018-Jun-08 12:00N 32°52' E 034°59'4 8.8
2018-Jun-08 11:29N 32°53' E 034°54'1222.7
2018-Jun-08 10:59N 32°56' E 034°41'0 0.0
2018-Jun-08 10:30N 32°56' E 034°41'510.9
2018-Jun-08 10:01N 32°57' E 034°35'5 9.2
2018-Jun-08 09:29N 33°00' E 034°30'1911.4
2018-Jun-08 07:46N 33°19' E 034°35'  

Dump ship's entire track history